Time;durP1;ratioP1;P1;durP2;ratioP2;P2;SDS_P1;SDS_P2;PMS_P1;PMS_P2;Temp;Humidity;BMP_temperature;BMP_pressure;BME280_temperature;BME280_humidity;BME280_pressure;Samples;Min_cycle;Max_cycle;Signal;HPM_P1;HPM_P2
2023/07/30 00:00:58;;;;;;;;;;;19.40;77.60;;;;;;5042740;28;19920;-54
2023/07/30 00:03:25;;;;;;;;;;;19.40;77.60;;;;;;5048988;28;19936;-53
2023/07/30 00:05:55;;;;;;;;;;;19.40;77.60;;;;;;5035294;28;19920;-54
2023/07/30 00:08:22;;;;;;;;;;;19.40;77.60;;;;;;5044181;28;20344;-53
2023/07/30 00:10:49;;;;;;;;;;;19.40;77.60;;;;;;5068384;28;19929;-52
2023/07/30 00:13:15;;;;;;;;;;;19.40;77.60;;;;;;5065166;28;20616;-50
2023/07/30 00:15:42;;;;;;;;;;;19.30;77.60;;;;;;5064707;28;20337;-53
2023/07/30 00:18:09;;;;;;;;;;;19.30;78.20;;;;;;5049623;28;19921;-51
2023/07/30 00:20:35;;;;;;;;;;;19.20;77.60;;;;;;5066862;28;19920;-52
2023/07/30 00:23:02;;;;;;;;;;;19.20;77.70;;;;;;5070912;28;19947;-50
2023/07/30 00:25:34;;;;;;;;;;;19.20;77.60;;;;;;5057710;28;19978;-53
2023/07/30 00:28:03;;;;;;;;;;;19.20;77.70;;;;;;5052740;28;19920;-51
2023/07/30 00:30:33;;;;;;;;;;;19.20;77.70;;;;;;5052139;28;20002;-50
2023/07/30 00:33:00;;;;;;;;;;;19.10;77.70;;;;;;5059511;28;19985;-50
2023/07/30 00:35:27;;;;;;;;;;;19.10;77.80;;;;;;5050765;28;19944;-53
2023/07/30 00:37:56;;;;;;;;;;;19.20;77.90;;;;;;5050983;28;19926;-53
2023/07/30 00:40:25;;;;;;;;;;;19.10;78.00;;;;;;5051745;28;20469;-51
2023/07/30 00:42:56;;;;;;;;;;;19.10;78.00;;;;;;5049646;28;19924;-51
2023/07/30 00:45:23;;;;;;;;;;;19.10;78.10;;;;;;5062616;28;19927;-53
2023/07/30 00:47:53;;;;;;;;;;;19.10;78.40;;;;;;5055811;28;20005;-52
2023/07/30 00:50:22;;;;;;;;;;;19.10;78.50;;;;;;5070467;28;19920;-51
2023/07/30 00:52:49;;;;;;;;;;;19.20;78.70;;;;;;5055055;28;19928;-52
2023/07/30 00:55:17;;;;;;;;;;;19.20;78.70;;;;;;5060251;28;19982;-53
2023/07/30 00:57:47;;;;;;;;;;;19.30;78.90;;;;;;5068895;28;19921;-53
2023/07/30 01:00:18;;;;;;;;;;;19.20;78.80;;;;;;5049466;28;19921;-53
2023/07/30 01:02:46;;;;;;;;;;;19.30;78.80;;;;;;5063547;28;20368;-53
2023/07/30 01:05:18;;;;;;;;;;;19.30;78.80;;;;;;5069712;28;20271;-48
2023/07/30 01:07:45;;;;;;;;;;;19.30;78.70;;;;;;5069907;28;19920;-53
2023/07/30 01:10:15;;;;;;;;;;;19.30;78.40;;;;;;5056321;28;19924;-53
2023/07/30 01:12:43;;;;;;;;;;;19.30;78.30;;;;;;5062274;28;19982;-53
2023/07/30 01:15:10;;;;;;;;;;;19.30;78.10;;;;;;5070389;28;20011;-52
2023/07/30 01:17:40;;;;;;;;;;;19.30;78.00;;;;;;5066287;28;20027;-53
2023/07/30 01:20:10;;;;;;;;;;;19.30;77.90;;;;;;5056485;28;19928;-53
2023/07/30 01:22:37;;;;;;;;;;;19.30;77.90;;;;;;5067592;28;19959;-53
2023/07/30 01:25:04;;;;;;;;;;;19.20;77.60;;;;;;5070611;28;19974;-53
2023/07/30 01:27:38;;;;;;;;;;;19.20;77.20;;;;;;5057574;28;20509;-53
2023/07/30 01:30:17;;;;;;;;;;;19.20;77.60;;;;;;5048457;28;19929;-53
2023/07/30 01:32:48;;;;;;;;;;;19.20;77.50;;;;;;5060797;28;19956;-53
2023/07/30 01:35:17;;;;;;;;;;;19.20;77.70;;;;;;5048344;28;19960;-53
2023/07/30 01:37:44;;;;;;;;;;;19.10;77.40;;;;;;5050690;28;19924;-51
2023/07/30 01:40:13;;;;;;;;;;;19.10;77.50;;;;;;5049460;28;20019;-53
2023/07/30 01:42:42;;;;;;;;;;;19.00;77.30;;;;;;5044439;28;19925;-51
2023/07/30 01:45:13;;;;;;;;;;;19.10;77.50;;;;;;5050302;28;20395;-53
2023/07/30 01:47:42;;;;;;;;;;;19.00;77.60;;;;;;5049417;28;20465;-53
2023/07/30 01:50:09;;;;;;;;;;;19.00;77.60;;;;;;5046917;28;19960;-53
2023/07/30 01:52:38;;;;;;;;;;;19.00;77.60;;;;;;5064165;28;19921;-52
2023/07/30 01:55:05;;;;;;;;;;;19.00;77.60;;;;;;5050323;28;19963;-50
2023/07/30 01:57:32;;;;;;;;;;;18.90;77.60;;;;;;5047824;28;19928;-53
2023/07/30 01:59:59;;;;;;;;;;;19.00;77.70;;;;;;5041390;28;20346;-54
2023/07/30 02:02:25;;;;;;;;;;;18.90;77.70;;;;;;5049238;28;20011;-52
2023/07/30 02:04:55;;;;;;;;;;;18.90;77.70;;;;;;5064932;28;20294;-52
2023/07/30 02:07:29;;;;;;;;;;;18.90;77.60;;;;;;5049460;28;19925;-53
2023/07/30 02:10:03;;;;;;;;;;;18.80;77.70;;;;;;5044861;28;19947;-53
2023/07/30 02:12:30;;;;;;;;;;;18.80;77.70;;;;;;5049777;28;20008;-53
2023/07/30 02:14:59;;;;;;;;;;;18.80;77.70;;;;;;5050700;28;20514;-53
2023/07/30 02:17:32;;;;;;;;;;;18.80;77.70;;;;;;5044612;28;19928;-54
2023/07/30 02:19:59;;;;;;;;;;;18.80;77.60;;;;;;5057473;28;19920;-54
2023/07/30 02:22:25;;;;;;;;;;;18.80;77.60;;;;;;5051160;28;19974;-54
2023/07/30 02:24:52;;;;;;;;;;;18.80;77.70;;;;;;5050703;28;19970;-54
2023/07/30 02:27:19;;;;;;;;;;;18.70;77.60;;;;;;5059682;28;20659;-54
2023/07/30 02:29:48;;;;;;;;;;;18.70;77.50;;;;;;5046250;28;19921;-53
2023/07/30 02:32:15;;;;;;;;;;;18.70;77.40;;;;;;5049865;28;20418;-53
2023/07/30 02:34:52;;;;;;;;;;;18.60;77.40;;;;;;5046158;28;19921;-53
2023/07/30 02:37:18;;;;;;;;;;;18.70;77.40;;;;;;5047921;28;19925;-53
2023/07/30 02:39:45;;;;;;;;;;;18.60;77.20;;;;;;5049841;28;19929;-53
2023/07/30 02:42:13;;;;;;;;;;;18.60;77.40;;;;;;5049366;28;19921;-52
2023/07/30 02:44:40;;;;;;;;;;;18.60;77.50;;;;;;5044389;28;19982;-52
2023/07/30 02:47:06;;;;;;;;;;;18.60;77.50;;;;;;5049998;28;20592;-53
2023/07/30 02:49:33;;;;;;;;;;;18.60;77.50;;;;;;5048219;28;19929;-53
2023/07/30 02:51:59;;;;;;;;;;;18.60;77.60;;;;;;5047833;28;20039;-53
2023/07/30 02:54:30;;;;;;;;;;;18.50;77.70;;;;;;5049599;28;19960;-53
2023/07/30 02:56:57;;;;;;;;;;;18.50;77.60;;;;;;5050530;28;19990;-51
2023/07/30 02:59:24;;;;;;;;;;;18.50;77.60;;;;;;5046820;28;20019;-53
2023/07/30 03:01:53;;;;;;;;;;;18.50;77.50;;;;;;5063738;28;19925;-52
2023/07/30 03:04:19;;;;;;;;;;;18.50;77.50;;;;;;5050493;28;19920;-53
2023/07/30 03:06:49;;;;;;;;;;;18.50;77.70;;;;;;5051859;28;19928;-52
2023/07/30 03:09:16;;;;;;;;;;;18.50;77.80;;;;;;5045399;28;19928;-53
2023/07/30 03:11:45;;;;;;;;;;;18.50;77.80;;;;;;5049993;28;20360;-50
2023/07/30 03:14:12;;;;;;;;;;;18.50;77.90;;;;;;5050568;28;19968;-53
2023/07/30 03:16:44;;;;;;;;;;;18.50;77.90;;;;;;5051546;28;19920;-52
2023/07/30 03:19:14;;;;;;;;;;;18.50;78.00;;;;;;5050444;28;20015;-53
2023/07/30 03:21:42;;;;;;;;;;;18.50;78.10;;;;;;5050259;28;19960;-54
2023/07/30 03:24:09;;;;;;;;;;;18.50;78.20;;;;;;5053044;28;20015;-53
2023/07/30 03:26:35;;;;;;;;;;;18.50;78.30;;;;;;5052283;28;19959;-51
2023/07/30 03:29:02;;;;;;;;;;;18.50;78.40;;;;;;5045236;28;19968;-54
2023/07/30 03:31:29;;;;;;;;;;;18.50;78.30;;;;;;5051063;28;19963;-51
2023/07/30 03:33:55;;;;;;;;;;;18.50;78.40;;;;;;5047963;28;19921;-51
2023/07/30 03:36:22;;;;;;;;;;;18.50;78.50;;;;;;5048479;28;20019;-51
2023/07/30 03:38:48;;;;;;;;;;;18.60;78.60;;;;;;5051096;28;19951;-49
2023/07/30 03:41:15;;;;;;;;;;;18.60;78.70;;;;;;5051669;28;20477;-51
2023/07/30 03:43:42;;;;;;;;;;;18.60;78.50;;;;;;5067929;28;19959;-53
2023/07/30 03:46:13;;;;;;;;;;;18.60;78.60;;;;;;5056660;28;19974;-53
2023/07/30 03:48:39;;;;;;;;;;;18.60;78.60;;;;;;5057100;28;20338;-53
2023/07/30 03:51:09;;;;;;;;;;;18.60;78.70;;;;;;5052353;28;19921;-49
2023/07/30 03:53:35;;;;;;;;;;;18.70;78.90;;;;;;5055599;28;20011;-52
2023/07/30 03:56:04;;;;;;;;;;;18.70;78.90;;;;;;5056023;28;21524;-50
2023/07/30 03:58:31;;;;;;;;;;;18.70;79.00;;;;;;5055850;28;19920;-53
2023/07/30 04:00:57;;;;;;;;;;;18.70;79.10;;;;;;5077269;22;20005;-47
2023/07/30 04:03:24;;;;;;;;;;;18.80;79.30;;;;;;5093419;28;19920;-46
2023/07/30 04:05:54;;;;;;;;;;;18.80;79.30;;;;;;5091936;28;19923;-47
2023/07/30 04:08:23;;;;;;;;;;;18.80;79.30;;;;;;5098366;28;19992;-49
2023/07/30 04:10:53;;;;;;;;;;;18.80;79.40;;;;;;5090616;28;19927;-47
2023/07/30 04:13:23;;;;;;;;;;;18.90;79.30;;;;;;5093912;28;19950;-47
2023/07/30 04:15:52;;;;;;;;;;;18.90;79.50;;;;;;5075346;28;19962;-48
2023/07/30 04:18:22;;;;;;;;;;;18.90;80.20;;;;;;5093150;28;20288;-50
2023/07/30 04:20:52;;;;;;;;;;;19.00;79.60;;;;;;5071123;28;19927;-49
2023/07/30 04:23:23;;;;;;;;;;;19.00;79.70;;;;;;5094096;28;20016;-51
2023/07/30 04:25:50;;;;;;;;;;;19.10;79.40;;;;;;5092979;28;20043;-46
2023/07/30 04:28:17;;;;;;;;;;;19.10;79.40;;;;;;5073552;28;19920;-51
2023/07/30 04:30:46;;;;;;;;;;;19.10;79.50;;;;;;5085111;28;19920;-48
2023/07/30 04:33:14;;;;;;;;;;;19.20;79.30;;;;;;5064941;28;19924;-47
2023/07/30 04:35:41;;;;;;;;;;;19.20;79.00;;;;;;5070624;28;19924;-52
2023/07/30 04:38:18;;;;;;;;;;;19.20;78.90;;;;;;5069264;28;19927;-52
2023/07/30 04:40:47;;;;;;;;;;;19.20;78.90;;;;;;5073601;28;19920;-51
2023/07/30 04:43:14;;;;;;;;;;;19.20;78.30;;;;;;5067175;28;19973;-52
2023/07/30 04:45:44;;;;;;;;;;;19.20;78.80;;;;;;5074483;28;19923;-52
2023/07/30 04:48:11;;;;;;;;;;;19.20;78.20;;;;;;5074754;28;19920;-52
2023/07/30 04:50:39;;;;;;;;;;;19.20;78.60;;;;;;5073590;28;20419;-48
2023/07/30 04:53:06;;;;;;;;;;;19.20;78.40;;;;;;5090218;28;19962;-50
2023/07/30 04:55:32;;;;;;;;;;;19.20;78.10;;;;;;5092800;28;19920;-52
2023/07/30 04:58:02;;;;;;;;;;;19.20;78.30;;;;;;5073519;28;19977;-49
2023/07/30 05:00:29;;;;;;;;;;;19.20;78.20;;;;;;5068813;28;19927;-51
2023/07/30 05:02:55;;;;;;;;;;;19.20;78.30;;;;;;5092083;28;19920;-49
2023/07/30 05:05:24;;;;;;;;;;;19.20;78.40;;;;;;5093242;28;19955;-51
2023/07/30 05:07:51;;;;;;;;;;;19.20;78.60;;;;;;5091306;28;19920;-53
2023/07/30 05:10:18;;;;;;;;;;;19.30;78.50;;;;;;5086615;28;19927;-52
2023/07/30 05:12:45;;;;;;;;;;;19.30;78.50;;;;;;5089984;28;19977;-51
2023/07/30 05:15:12;;;;;;;;;;;19.30;78.40;;;;;;5092175;28;19920;-47
2023/07/30 05:17:38;;;;;;;;;;;19.30;78.30;;;;;;5071867;28;19974;-48
2023/07/30 05:20:10;;;;;;;;;;;19.20;78.40;;;;;;5074292;28;19974;-49
2023/07/30 05:22:39;;;;;;;;;;;19.30;78.10;;;;;;5091435;28;19920;-48
2023/07/30 05:25:06;;;;;;;;;;;19.20;78.20;;;;;;5087690;28;20014;-49
2023/07/30 05:27:32;;;;;;;;;;;19.30;78.40;;;;;;5074840;28;20009;-50
2023/07/30 05:30:03;;;;;;;;;;;19.30;78.30;;;;;;5086161;28;19967;-48
2023/07/30 05:32:32;;;;;;;;;;;19.30;78.40;;;;;;5091317;28;20014;-50
2023/07/30 05:35:05;;;;;;;;;;;19.30;78.50;;;;;;5086293;28;19949;-49
2023/07/30 05:37:32;;;;;;;;;;;19.30;78.10;;;;;;5092522;28;19920;-51
2023/07/30 05:39:59;;;;;;;;;;;19.30;77.60;;;;;;5091237;28;19965;-48
2023/07/30 05:42:30;;;;;;;;;;;19.30;77.70;;;;;;5087102;28;19924;-49
2023/07/30 05:44:58;;;;;;;;;;;19.30;77.80;;;;;;5091450;28;19924;-49
2023/07/30 05:47:30;;;;;;;;;;;19.30;77.80;;;;;;5092148;28;20408;-49
2023/07/30 05:50:02;;;;;;;;;;;19.30;77.80;;;;;;5086048;28;20455;-47
2023/07/30 05:52:31;;;;;;;;;;;19.30;77.70;;;;;;5090810;28;19927;-52
2023/07/30 05:54:57;;;;;;;;;;;19.30;77.70;;;;;;5090956;28;20016;-51
2023/07/30 05:57:25;;;;;;;;;;;19.30;77.60;;;;;;5089149;28;20398;-50
2023/07/30 05:59:52;;;;;;;;;;;19.30;77.10;;;;;;5087402;28;19943;-51
2023/07/30 06:02:18;;;;;;;;;;;19.50;77.40;;;;;;5089182;28;19923;-52
2023/07/30 06:04:46;;;;;;;;;;;19.40;77.40;;;;;;5090510;28;19989;-51
2023/07/30 06:07:21;;;;;;;;;;;19.40;77.30;;;;;;5083828;28;19998;-50
2023/07/30 06:09:48;;;;;;;;;;;19.40;77.20;;;;;;5089958;28;20364;-51
2023/07/30 06:12:16;;;;;;;;;;;19.50;76.80;;;;;;5089966;28;19931;-50
2023/07/30 06:14:43;;;;;;;;;;;19.50;76.80;;;;;;5089889;28;19977;-53
2023/07/30 06:17:10;;;;;;;;;;;19.50;77.10;;;;;;5083665;28;19955;-51
2023/07/30 06:19:44;;;;;;;;;;;19.60;76.80;;;;;;5089879;28;19931;-51
2023/07/30 06:22:13;;;;;;;;;;;19.50;76.90;;;;;;5089683;28;20416;-50
2023/07/30 06:24:40;;;;;;;;;;;19.60;76.60;;;;;;5089731;28;19923;-52
2023/07/30 06:27:06;;;;;;;;;;;19.60;76.30;;;;;;5087326;28;19924;-52
2023/07/30 06:29:34;;;;;;;;;;;19.60;76.30;;;;;;5087264;28;19931;-50
2023/07/30 06:32:02;;;;;;;;;;;19.70;76.50;;;;;;5089354;28;19973;-51
2023/07/30 06:34:28;;;;;;;;;;;19.70;76.50;;;;;;5087071;28;19974;-51
2023/07/30 06:36:55;;;;;;;;;;;19.70;76.50;;;;;;5090250;28;19928;-52
2023/07/30 06:39:27;;;;;;;;;;;19.80;76.30;;;;;;5085308;28;19935;-54
2023/07/30 06:41:53;;;;;;;;;;;19.80;76.20;;;;;;5087296;28;19924;-51
2023/07/30 06:44:25;;;;;;;;;;;19.80;76.00;;;;;;5070025;28;19970;-50
2023/07/30 06:46:51;;;;;;;;;;;19.90;75.70;;;;;;5070910;28;19924;-52
2023/07/30 06:49:18;;;;;;;;;;;19.90;75.60;;;;;;5076466;28;20340;-51
2023/07/30 06:51:45;;;;;;;;;;;19.90;75.50;;;;;;5085826;28;20414;-52
2023/07/30 06:54:11;;;;;;;;;;;20.00;75.50;;;;;;5087330;28;19920;-52
2023/07/30 06:56:38;;;;;;;;;;;20.00;74.60;;;;;;5089075;28;20018;-52
2023/07/30 06:59:04;;;;;;;;;;;20.00;74.30;;;;;;5085113;28;20469;-50
2023/07/30 07:01:31;;;;;;;;;;;20.10;74.30;;;;;;5070072;28;19928;-54
2023/07/30 07:03:58;;;;;;;;;;;20.10;74.20;;;;;;5090707;28;19943;-53
2023/07/30 07:06:24;;;;;;;;;;;20.20;74.00;;;;;;5088543;28;19924;-54
2023/07/30 07:08:51;;;;;;;;;;;20.20;73.40;;;;;;5087049;28;20007;-50
2023/07/30 07:11:18;;;;;;;;;;;20.30;73.50;;;;;;5088664;28;20419;-53
2023/07/30 07:13:44;;;;;;;;;;;20.30;73.40;;;;;;5089324;28;20349;-51
2023/07/30 07:16:11;;;;;;;;;;;20.30;73.50;;;;;;5085069;28;20354;-51
2023/07/30 07:18:37;;;;;;;;;;;20.30;73.30;;;;;;5087257;28;19924;-50
2023/07/30 07:21:04;;;;;;;;;;;20.40;73.30;;;;;;5087750;28;19955;-51
2023/07/30 07:23:30;;;;;;;;;;;20.40;73.20;;;;;;5087183;28;19970;-53
2023/07/30 07:25:57;;;;;;;;;;;20.50;73.20;;;;;;5089303;28;19920;-52
2023/07/30 07:28:24;;;;;;;;;;;20.50;72.80;;;;;;5089120;28;20039;-53
2023/07/30 07:30:51;;;;;;;;;;;20.50;72.70;;;;;;5084059;28;19931;-52
2023/07/30 07:33:18;;;;;;;;;;;20.50;72.70;;;;;;5086471;28;19928;-52
2023/07/30 07:35:47;;;;;;;;;;;20.60;72.80;;;;;;5089621;28;19920;-51
2023/07/30 07:38:13;;;;;;;;;;;20.60;72.70;;;;;;5084030;28;20002;-52
2023/07/30 07:40:40;;;;;;;;;;;20.70;72.80;;;;;;5087117;28;19926;-51
2023/07/30 07:43:07;;;;;;;;;;;20.70;72.50;;;;;;5085512;28;19924;-51
2023/07/30 07:45:34;;;;;;;;;;;20.70;72.40;;;;;;5089324;28;19927;-51
2023/07/30 07:48:01;;;;;;;;;;;20.70;72.10;;;;;;5088975;28;20398;-51
2023/07/30 07:50:27;;;;;;;;;;;20.70;72.00;;;;;;5083447;28;20385;-51
2023/07/30 07:52:54;;;;;;;;;;;20.70;72.00;;;;;;5088050;28;19952;-54
2023/07/30 07:55:20;;;;;;;;;;;20.70;71.90;;;;;;5089810;28;19919;-51
2023/07/30 07:57:47;;;;;;;;;;;20.80;72.10;;;;;;5088917;28;20297;-52
2023/07/30 08:00:17;;;;;;;;;;;20.80;72.00;;;;;;5085941;28;19920;-54
2023/07/30 08:02:44;;;;;;;;;;;20.80;71.90;;;;;;5088506;28;19939;-53
2023/07/30 08:05:10;;;;;;;;;;;20.80;71.70;;;;;;5086694;28;19920;-51
2023/07/30 08:07:37;;;;;;;;;;;20.80;71.50;;;;;;5086145;28;20305;-51
2023/07/30 08:10:04;;;;;;;;;;;20.80;71.40;;;;;;5089280;28;19947;-54
2023/07/30 08:12:32;;;;;;;;;;;20.70;71.10;;;;;;5088481;28;20612;-51
2023/07/30 08:14:58;;;;;;;;;;;20.70;71.00;;;;;;5089762;28;20122;-55
2023/07/30 08:17:25;;;;;;;;;;;20.70;71.00;;;;;;5087815;28;20335;-53
2023/07/30 08:19:52;;;;;;;;;;;20.70;71.20;;;;;;5089262;28;19924;-50
2023/07/30 08:22:18;;;;;;;;;;;20.70;71.50;;;;;;5088931;28;19920;-53
2023/07/30 08:24:45;;;;;;;;;;;20.70;71.40;;;;;;5088061;28;20023;-50
2023/07/30 08:27:12;;;;;;;;;;;20.70;72.10;;;;;;5091661;28;19966;-54
2023/07/30 08:29:38;;;;;;;;;;;20.70;71.50;;;;;;5088683;28;20344;-52
2023/07/30 08:32:05;;;;;;;;;;;20.70;71.40;;;;;;5092647;28;19924;-50
2023/07/30 08:34:32;;;;;;;;;;;20.70;71.20;;;;;;5087772;28;20398;-54
2023/07/30 08:36:58;;;;;;;;;;;20.70;71.10;;;;;;5090208;28;19950;-47
2023/07/30 08:39:25;;;;;;;;;;;20.70;70.90;;;;;;5091778;28;19928;-47
2023/07/30 08:41:52;;;;;;;;;;;20.70;70.70;;;;;;5094055;28;20019;-48
2023/07/30 08:44:19;;;;;;;;;;;20.70;70.50;;;;;;5091602;28;19927;-51
2023/07/30 08:46:45;;;;;;;;;;;20.70;70.60;;;;;;5090640;28;20377;-48
2023/07/30 08:49:12;;;;;;;;;;;20.70;70.70;;;;;;5090294;28;19920;-49
2023/07/30 08:51:40;;;;;;;;;;;20.70;70.60;;;;;;5091759;28;20010;-49
2023/07/30 08:54:07;;;;;;;;;;;20.70;70.60;;;;;;5086019;28;20286;-50
2023/07/30 08:56:36;;;;;;;;;;;20.70;70.70;;;;;;5090892;28;19923;-48
2023/07/30 08:59:06;;;;;;;;;;;20.80;71.00;;;;;;5089816;28;20405;-48
2023/07/30 09:01:37;;;;;;;;;;;20.90;71.20;;;;;;5087339;28;20002;-47
2023/07/30 09:04:05;;;;;;;;;;;21.00;71.30;;;;;;5085128;28;20041;-50
2023/07/30 09:06:32;;;;;;;;;;;21.20;71.50;;;;;;5087530;28;20014;-49
2023/07/30 09:08:58;;;;;;;;;;;21.30;71.40;;;;;;5091382;28;20386;-51
2023/07/30 09:11:26;;;;;;;;;;;21.40;71.30;;;;;;5092260;28;19930;-49
2023/07/30 09:13:54;;;;;;;;;;;21.60;71.00;;;;;;5088595;28;19973;-49
2023/07/30 09:16:24;;;;;;;;;;;21.70;70.40;;;;;;5083474;28;20339;-50
2023/07/30 09:18:52;;;;;;;;;;;21.80;70.30;;;;;;5092239;28;20401;-47
2023/07/30 09:21:19;;;;;;;;;;;21.90;69.60;;;;;;5089709;28;19959;-49
2023/07/30 09:23:47;;;;;;;;;;;22.00;69.00;;;;;;5089182;28;20344;-49
2023/07/30 09:26:13;;;;;;;;;;;22.10;68.60;;;;;;5089869;28;19948;-48
2023/07/30 09:28:40;;;;;;;;;;;22.00;68.60;;;;;;5089883;28;19920;-51
2023/07/30 09:31:07;;;;;;;;;;;22.10;69.00;;;;;;5083593;28;19931;-50
2023/07/30 09:33:48;;;;;;;;;;;22.20;69.20;;;;;;5090164;28;19958;-51
2023/07/30 09:36:15;;;;;;;;;;;22.30;69.00;;;;;;5089170;28;20019;-47
2023/07/30 09:38:42;;;;;;;;;;;22.40;69.10;;;;;;5086607;28;20011;-53
2023/07/30 09:41:11;;;;;;;;;;;22.60;69.30;;;;;;5092662;28;20006;-50
2023/07/30 09:43:37;;;;;;;;;;;22.70;68.70;;;;;;5091261;28;20440;-49
2023/07/30 09:46:07;;;;;;;;;;;22.80;68.70;;;;;;5086299;28;20007;-53
2023/07/30 09:48:34;;;;;;;;;;;22.90;67.60;;;;;;5090074;28;19939;-53
2023/07/30 09:51:08;;;;;;;;;;;23.10;67.00;;;;;;5090797;28;20706;-51
2023/07/30 09:53:34;;;;;;;;;;;23.20;67.00;;;;;;5090331;28;19955;-51
2023/07/30 09:56:02;;;;;;;;;;;23.20;66.80;;;;;;5088334;28;20401;-53
2023/07/30 09:58:29;;;;;;;;;;;23.30;67.30;;;;;;5090012;28;19920;-51
2023/07/30 10:01:00;;;;;;;;;;;23.40;67.20;;;;;;5086332;28;20011;-52
2023/07/30 10:03:27;;;;;;;;;;;23.50;66.80;;;;;;5089083;28;19963;-49
2023/07/30 10:05:56;;;;;;;;;;;23.60;65.90;;;;;;5072001;28;19924;-53
2023/07/30 10:08:24;;;;;;;;;;;23.70;64.90;;;;;;5088532;28;19964;-50
2023/07/30 10:10:52;;;;;;;;;;;23.80;65.10;;;;;;5090829;28;19927;-52
2023/07/30 10:13:19;;;;;;;;;;;23.90;65.90;;;;;;5090827;28;19963;-52
2023/07/30 10:15:46;;;;;;;;;;;24.00;65.70;;;;;;5088423;28;19938;-50
2023/07/30 10:18:13;;;;;;;;;;;24.00;65.40;;;;;;5085306;28;19930;-52
2023/07/30 10:20:40;;;;;;;;;;;24.00;65.10;;;;;;5056652;22;19927;-52
2023/07/30 10:23:06;;;;;;;;;;;24.10;65.10;;;;;;5026505;28;19978;-51
2023/07/30 10:25:36;;;;;;;;;;;24.10;65.20;;;;;;5026347;28;19960;-47
2023/07/30 10:28:03;;;;;;;;;;;24.10;65.10;;;;;;5011092;28;19957;-48
2023/07/30 10:30:30;;;;;;;;;;;24.10;64.80;;;;;;5005670;28;19921;-53
2023/07/30 10:32:59;;;;;;;;;;;24.10;64.70;;;;;;5010614;28;20384;-48
2023/07/30 10:35:35;;;;;;;;;;;24.10;64.30;;;;;;5009787;28;19925;-47
2023/07/30 10:38:12;;;;;;;;;;;24.10;64.80;;;;;;5011519;28;19929;-50
2023/07/30 10:40:39;;;;;;;;;;;24.20;64.90;;;;;;5009810;28;20559;-51
2023/07/30 10:43:15;;;;;;;;;;;24.30;64.60;;;;;;5009648;28;20038;-54
2023/07/30 10:45:48;;;;;;;;;;;24.30;63.90;;;;;;5008389;28;20028;-52
2023/07/30 10:48:15;;;;;;;;;;;24.40;64.50;;;;;;5011865;28;20541;-50
2023/07/30 10:50:41;;;;;;;;;;;24.50;64.60;;;;;;5011335;28;19921;-50
2023/07/30 10:53:08;;;;;;;;;;;24.50;64.30;;;;;;5009482;28;20012;-50
2023/07/30 10:55:35;;;;;;;;;;;24.60;63.90;;;;;;5005162;28;19984;-50
2023/07/30 10:58:01;;;;;;;;;;;24.70;64.30;;;;;;5015305;28;20348;-53
2023/07/30 11:00:28;;;;;;;;;;;24.70;64.20;;;;;;5004167;28;20019;-50
2023/07/30 11:02:54;;;;;;;;;;;24.80;63.60;;;;;;5007473;28;19953;-50
2023/07/30 11:05:21;;;;;;;;;;;24.90;64.00;;;;;;5012497;28;19928;-53
2023/07/30 11:07:51;;;;;;;;;;;24.90;62.20;;;;;;5010088;28;19925;-51
2023/07/30 11:10:18;;;;;;;;;;;24.90;63.50;;;;;;5014064;28;19921;-51
2023/07/30 11:12:49;;;;;;;;;;;24.90;62.80;;;;;;5024679;28;19937;-53
2023/07/30 11:15:18;;;;;;;;;;;25.00;63.20;;;;;;5008903;28;20339;-52
2023/07/30 11:17:45;;;;;;;;;;;25.00;62.60;;;;;;5010293;28;19975;-51
2023/07/30 11:20:26;;;;;;;;;;;25.00;63.00;;;;;;5010731;28;19929;-49
2023/07/30 11:22:53;;;;;;;;;;;25.00;63.60;;;;;;5009983;28;19975;-53
2023/07/30 11:25:20;;;;;;;;;;;25.00;62.80;;;;;;5007261;28;20356;-51
2023/07/30 11:27:50;;;;;;;;;;;25.00;62.20;;;;;;5008139;28;20347;-50
2023/07/30 11:30:19;;;;;;;;;;;25.00;61.60;;;;;;5005776;28;19960;-48
2023/07/30 11:32:46;;;;;;;;;;;25.00;62.10;;;;;;5009596;28;19936;-54
2023/07/30 11:35:13;;;;;;;;;;;25.00;62.00;;;;;;5008297;28;19925;-51
2023/07/30 11:37:42;;;;;;;;;;;25.00;61.70;;;;;;5009081;28;19925;-53
2023/07/30 11:40:09;;;;;;;;;;;25.00;61.40;;;;;;5003706;28;20009;-50
2023/07/30 11:42:36;;;;;;;;;;;24.90;61.30;;;;;;5009107;28;19922;-53
2023/07/30 11:45:20;;;;;;;;;;;24.90;60.90;;;;;;5010068;28;20010;-49
2023/07/30 11:47:47;;;;;;;;;;;24.90;60.60;;;;;;5006182;28;19928;-54
2023/07/30 11:50:14;;;;;;;;;;;24.80;60.50;;;;;;5014752;28;19933;-51
2023/07/30 11:52:56;;;;;;;;;;;24.80;60.30;;;;;;5008387;28;19963;-52
2023/07/30 11:55:24;;;;;;;;;;;24.70;60.90;;;;;;5015094;28;20065;-50
2023/07/30 11:57:51;;;;;;;;;;;24.70;60.50;;;;;;5005508;28;20020;-49
2023/07/30 12:00:20;;;;;;;;;;;24.60;59.60;;;;;;5006203;28;19960;-50
2023/07/30 12:02:47;;;;;;;;;;;24.60;60.80;;;;;;5011522;28;20414;-52
2023/07/30 12:05:16;;;;;;;;;;;24.50;60.60;;;;;;5011888;28;19929;-53
2023/07/30 12:07:42;;;;;;;;;;;24.50;60.70;;;;;;5011601;28;19925;-52
2023/07/30 12:10:09;;;;;;;;;;;24.50;61.30;;;;;;5016076;28;19921;-53
2023/07/30 12:12:36;;;;;;;;;;;24.50;60.90;;;;;;5014528;28;20399;-52
2023/07/30 12:15:09;;;;;;;;;;;24.50;61.10;;;;;;5019006;28;20108;-52
2023/07/30 12:17:36;;;;;;;;;;;24.50;60.70;;;;;;5017817;28;20021;-54
2023/07/30 12:20:06;;;;;;;;;;;24.60;61.10;;;;;;5009744;28;19980;-53
2023/07/30 12:22:34;;;;;;;;;;;24.60;60.50;;;;;;5011797;28;19976;-54
2023/07/30 12:25:04;;;;;;;;;;;24.60;60.20;;;;;;5016917;28;20459;-52
2023/07/30 12:27:31;;;;;;;;;;;24.60;59.50;;;;;;5005474;28;19928;-53
2023/07/30 12:29:57;;;;;;;;;;;24.60;59.70;;;;;;5008168;28;19921;-53
2023/07/30 12:32:26;;;;;;;;;;;24.60;60.10;;;;;;5011696;28;20572;-49
2023/07/30 12:34:53;;;;;;;;;;;24.60;60.70;;;;;;5012888;28;19921;-49
2023/07/30 12:37:19;;;;;;;;;;;24.70;60.30;;;;;;5010498;28;20020;-49
2023/07/30 12:39:46;;;;;;;;;;;24.70;60.40;;;;;;5014219;28;19964;-54
2023/07/30 12:42:12;;;;;;;;;;;24.80;60.30;;;;;;5013654;28;19976;-51
2023/07/30 12:44:39;;;;;;;;;;;24.80;60.00;;;;;;5018469;28;19959;-50
2023/07/30 12:47:05;;;;;;;;;;;24.80;60.10;;;;;;5017151;28;19921;-52
2023/07/30 12:49:32;;;;;;;;;;;24.80;60.20;;;;;;5019099;28;20027;-49
2023/07/30 12:51:59;;;;;;;;;;;24.90;60.00;;;;;;5019684;28;20391;-51
2023/07/30 12:54:25;;;;;;;;;;;24.90;60.30;;;;;;5019195;28;19933;-49
2023/07/30 12:56:52;;;;;;;;;;;24.90;60.30;;;;;;5017211;28;19921;-52
2023/07/30 12:59:18;;;;;;;;;;;25.00;60.50;;;;;;5021727;28;19920;-53
2023/07/30 13:01:45;;;;;;;;;;;25.10;59.60;;;;;;5020571;28;19930;-51
2023/07/30 13:04:14;;;;;;;;;;;25.20;60.40;;;;;;5020001;28;19974;-49
2023/07/30 13:06:40;;;;;;;;;;;25.30;60.30;;;;;;5018470;28;19983;-48
2023/07/30 13:09:07;;;;;;;;;;;25.40;60.80;;;;;;5015209;28;19927;-53
2023/07/30 13:11:34;;;;;;;;;;;25.40;59.80;;;;;;5014185;28;19929;-49
2023/07/30 13:14:01;;;;;;;;;;;25.60;60.50;;;;;;5011589;28;20347;-52
2023/07/30 13:16:32;;;;;;;;;;;25.70;60.40;;;;;;5011679;28;19921;-48
2023/07/30 13:18:58;;;;;;;;;;;25.70;59.20;;;;;;5010481;28;19928;-53
2023/07/30 13:21:25;;;;;;;;;;;25.70;59.10;;;;;;5014762;28;19962;-52
2023/07/30 13:23:51;;;;;;;;;;;25.80;58.80;;;;;;5011415;28;20012;-52
2023/07/30 13:26:18;;;;;;;;;;;25.80;59.00;;;;;;5011530;28;19925;-49
2023/07/30 13:28:45;;;;;;;;;;;25.80;59.50;;;;;;5006173;28;20013;-53
2023/07/30 13:31:12;;;;;;;;;;;25.90;59.40;;;;;;5012170;28;19929;-51
2023/07/30 13:33:38;;;;;;;;;;;25.90;60.00;;;;;;5010925;28;19949;-49
2023/07/30 13:36:05;;;;;;;;;;;26.00;59.40;;;;;;5010848;28;19925;-53
2023/07/30 13:38:32;;;;;;;;;;;26.20;59.90;;;;;;5009093;28;20024;-53
2023/07/30 13:40:58;;;;;;;;;;;26.40;61.10;;;;;;5011687;28;19921;-53
2023/07/30 13:43:25;;;;;;;;;;;26.80;61.70;;;;;;5010602;28;19922;-53
2023/07/30 13:45:52;;;;;;;;;;;27.30;61.50;;;;;;5014687;28;20435;-50
2023/07/30 13:48:19;;;;;;;;;;;27.70;61.10;;;;;;5005803;28;20406;-52
2023/07/30 13:50:46;;;;;;;;;;;28.20;60.70;;;;;;5014356;28;20017;-53
2023/07/30 13:53:13;;;;;;;;;;;28.50;60.10;;;;;;5010882;28;20311;-54
2023/07/30 13:55:40;;;;;;;;;;;28.90;60.00;;;;;;5010452;28;20007;-53
2023/07/30 13:58:06;;;;;;;;;;;29.10;59.80;;;;;;5008818;28;19989;-51
2023/07/30 14:00:33;;;;;;;;;;;29.50;60.90;;;;;;5005743;28;19921;-51
2023/07/30 14:03:00;;;;;;;;;;;30.00;61.10;;;;;;5010105;28;19922;-52
2023/07/30 14:05:28;;;;;;;;;;;30.50;61.50;;;;;;5010920;28;19976;-54
2023/07/30 14:07:57;;;;;;;;;;;31.20;59.60;;;;;;5005688;28;19921;-53
2023/07/30 14:10:23;;;;;;;;;;;31.90;61.10;;;;;;5011992;28;19965;-54
2023/07/30 14:12:50;;;;;;;;;;;32.70;61.40;;;;;;5010506;28;19983;-52
2023/07/30 14:15:19;;;;;;;;;;;33.50;59.20;;;;;;5007500;28;19921;-51
2023/07/30 14:17:45;;;;;;;;;;;34.20;61.20;;;;;;5009973;28;20782;-50
2023/07/30 14:20:12;;;;;;;;;;;34.70;60.20;;;;;;5011457;28;19925;-53